createdAt,value
2023-04-17T00:01:32.318Z,99.90
2023-04-17T00:03:59.246Z,99.90
2023-04-17T00:06:27.206Z,99.90
2023-04-17T00:08:54.056Z,99.90
2023-04-17T00:11:21.395Z,99.90
2023-04-17T00:13:48.267Z,99.90
2023-04-17T00:16:15.086Z,99.90
2023-04-17T00:18:42.001Z,99.90
2023-04-17T00:21:08.897Z,99.90
2023-04-17T00:23:35.933Z,99.90
2023-04-17T00:26:02.767Z,99.90
2023-04-17T00:28:29.518Z,99.90
2023-04-17T00:30:58.288Z,99.90
2023-04-17T00:33:25.357Z,99.90
2023-04-17T00:35:52.303Z,99.90
2023-04-17T00:38:19.082Z,99.90
2023-04-17T00:40:46.351Z,99.90
2023-04-17T00:43:13.162Z,99.90
2023-04-17T00:45:40.313Z,99.90
2023-04-17T00:48:08.904Z,99.90
2023-04-17T00:50:36.887Z,99.90
2023-04-17T00:53:03.907Z,99.90
2023-04-17T00:55:32.212Z,99.90
2023-04-17T00:58:00.202Z,99.90
2023-04-17T01:00:26.995Z,99.90
2023-04-17T01:02:56.718Z,99.90
2023-04-17T01:05:25.639Z,99.90
2023-04-17T01:07:52.535Z,99.90
2023-04-17T01:10:19.375Z,99.90
2023-04-17T01:12:49.246Z,99.90
2023-04-17T01:15:16.413Z,99.90
2023-04-17T01:17:43.320Z,99.90
2023-04-17T01:20:12.040Z,99.90
2023-04-17T01:22:38.793Z,99.90
2023-04-17T01:25:06.651Z,99.90
2023-04-17T01:27:35.230Z,99.90
2023-04-17T01:30:02.158Z,99.90
2023-04-17T01:32:28.988Z,99.90
2023-04-17T01:34:55.836Z,99.90
2023-04-17T01:37:22.605Z,99.90
2023-04-17T01:39:49.433Z,99.90
2023-04-17T01:42:16.386Z,99.90
2023-04-17T01:44:43.102Z,99.90
2023-04-17T01:47:09.981Z,99.90
2023-04-17T01:49:36.745Z,99.90
2023-04-17T01:52:03.497Z,99.90
2023-04-17T01:54:30.424Z,99.90
2023-04-17T01:56:57.636Z,99.90
2023-04-17T01:59:24.682Z,99.90
2023-04-17T02:01:51.550Z,99.90
2023-04-17T02:04:18.684Z,99.90
2023-04-17T02:06:45.546Z,99.90
2023-04-17T02:09:12.552Z,99.90
2023-04-17T02:11:39.472Z,99.90
2023-04-17T02:14:06.230Z,99.90
2023-04-17T02:16:33.036Z,99.90
2023-04-17T02:18:59.789Z,99.90
2023-04-17T02:21:27.417Z,99.90
2023-04-17T02:23:54.376Z,99.90
2023-04-17T02:26:21.722Z,99.90
2023-04-17T02:28:48.411Z,99.90
2023-04-17T02:31:15.275Z,99.90
2023-04-17T02:33:42.104Z,99.90
2023-04-17T02:36:09.204Z,99.90
2023-04-17T02:38:37.750Z,99.90
2023-04-17T02:41:05.385Z,99.90
2023-04-17T02:43:32.147Z,99.90
2023-04-17T02:45:59.031Z,99.90
2023-04-17T02:48:25.880Z,99.90
2023-04-17T02:50:52.829Z,99.90
2023-04-17T02:53:19.568Z,99.90
2023-04-17T02:55:46.302Z,99.90
2023-04-17T02:58:13.398Z,99.90
2023-04-17T03:00:40.902Z,99.90
2023-04-17T03:03:08.289Z,99.90
2023-04-17T03:05:35.907Z,99.90
2023-04-17T03:08:02.789Z,99.90
2023-04-17T03:10:29.490Z,99.90
2023-04-17T03:12:56.215Z,99.90
2023-04-17T03:15:23.077Z,99.90
2023-04-17T03:17:49.919Z,99.90
2023-04-17T03:20:17.937Z,99.90
2023-04-17T03:22:45.001Z,99.90
2023-04-17T03:25:11.875Z,99.90
2023-04-17T03:27:38.861Z,99.90
2023-04-17T03:30:06.391Z,99.90
2023-04-17T03:32:33.362Z,99.90
2023-04-17T03:35:00.419Z,99.90
2023-04-17T03:37:27.293Z,99.90
2023-04-17T03:39:55.522Z,99.90
2023-04-17T03:42:22.220Z,99.90
2023-04-17T03:44:49.085Z,99.90
2023-04-17T03:47:15.996Z,99.90
2023-04-17T03:49:42.874Z,99.90
2023-04-17T03:52:09.776Z,99.90
2023-04-17T03:54:36.740Z,99.90
2023-04-17T03:57:03.996Z,99.90
2023-04-17T03:59:31.697Z,99.90
2023-04-17T04:01:58.694Z,99.90
2023-04-17T04:04:26.214Z,99.90
2023-04-17T04:06:57.550Z,99.90
2023-04-17T04:09:25.652Z,99.90
2023-04-17T04:11:52.401Z,99.90
2023-04-17T04:14:25.850Z,99.90
2023-04-17T04:16:52.973Z,99.90
2023-04-17T04:19:19.706Z,99.90
2023-04-17T04:21:46.482Z,99.90
2023-04-17T04:24:14.238Z,99.90
2023-04-17T04:26:41.290Z,99.90
2023-04-17T04:29:08.947Z,99.90
2023-04-17T04:31:37.774Z,99.90
2023-04-17T04:34:07.148Z,99.90
2023-04-17T04:36:41.844Z,99.90
2023-04-17T04:39:08.669Z,99.90
2023-04-17T04:41:39.193Z,99.90
2023-04-17T04:44:06.150Z,99.90
2023-04-17T04:46:32.919Z,99.90
2023-04-17T04:48:59.735Z,99.90
2023-04-17T04:51:26.894Z,99.90
2023-04-17T04:53:53.666Z,99.90
2023-04-17T04:56:32.368Z,99.90
2023-04-17T04:59:05.660Z,99.90
2023-04-17T05:01:32.721Z,99.90
2023-04-17T05:03:59.700Z,99.90
2023-04-17T05:06:27.744Z,99.90
2023-04-17T05:11:41.720Z,99.90
2023-04-17T05:14:08.535Z,99.90
2023-04-17T05:16:35.543Z,99.90
2023-04-17T05:19:04.746Z,99.90
2023-04-17T05:21:31.434Z,99.90
2023-04-17T05:28:20.005Z,99.90
2023-04-17T05:30:46.752Z,99.90
2023-04-17T05:33:13.524Z,99.90
2023-04-17T05:35:40.380Z,99.90
2023-04-17T05:38:07.936Z,99.90
2023-04-17T05:40:34.934Z,99.90
2023-04-17T05:43:11.354Z,99.90
2023-04-17T05:45:38.814Z,99.90
2023-04-17T05:48:05.823Z,99.90
2023-04-17T05:50:32.634Z,99.90
2023-04-17T05:52:59.371Z,99.90
2023-04-17T05:55:26.162Z,99.90
2023-04-17T05:57:52.969Z,99.90
2023-04-17T06:00:22.700Z,99.90
2023-04-17T06:02:49.931Z,99.90
2023-04-17T06:05:19.841Z,99.90
2023-04-17T06:07:46.584Z,99.90
2023-04-17T06:10:13.319Z,99.90
2023-04-17T06:12:40.348Z,99.90
2023-04-17T06:15:10.779Z,99.90
2023-04-17T06:17:40.855Z,99.90
2023-04-17T06:20:10.199Z,99.90
2023-04-17T06:22:45.028Z,99.90
2023-04-17T06:25:11.872Z,99.90
2023-04-17T06:27:38.795Z,99.90
2023-04-17T06:30:06.457Z,99.90
2023-04-17T06:32:46.635Z,99.90
2023-04-17T06:35:16.965Z,99.90
2023-04-17T06:37:43.644Z,99.90
2023-04-17T06:40:12.400Z,99.90
2023-04-17T06:42:39.181Z,99.90
2023-04-17T06:45:07.837Z,99.90
2023-04-17T06:47:34.790Z,99.90
2023-04-17T06:50:01.646Z,99.90
2023-04-17T06:52:28.516Z,99.90
2023-04-17T06:54:56.377Z,99.90
2023-04-17T06:57:23.365Z,99.90
2023-04-17T06:59:50.149Z,99.90
2023-04-17T07:02:18.263Z,99.90
2023-04-17T07:04:45.171Z,99.90
2023-04-17T07:07:12.236Z,99.90
2023-04-17T07:09:39.036Z,99.90
2023-04-17T07:12:05.879Z,99.90
2023-04-17T07:14:33.455Z,99.90
2023-04-17T07:17:01.988Z,99.90
2023-04-17T07:19:30.060Z,99.90
2023-04-17T07:21:57.023Z,99.90
2023-04-17T07:24:23.757Z,99.90
2023-04-17T07:26:50.574Z,99.90
2023-04-17T07:29:17.329Z,99.90
2023-04-17T07:31:47.220Z,99.90
2023-04-17T07:34:15.337Z,99.90
2023-04-17T07:36:42.102Z,99.90
2023-04-17T07:39:08.936Z,99.90
2023-04-17T07:41:36.103Z,99.90
2023-04-17T07:44:07.671Z,99.90
2023-04-17T07:46:35.457Z,99.90
2023-04-17T07:49:02.432Z,99.90
2023-04-17T07:51:31.493Z,99.90
2023-04-17T07:53:58.172Z,99.90
2023-04-17T07:56:27.640Z,99.90
2023-04-17T07:58:54.383Z,99.90
2023-04-17T08:01:21.408Z,99.90
2023-04-17T08:03:48.915Z,99.90
2023-04-17T08:06:16.137Z,99.90
2023-04-17T08:08:47.408Z,99.90
2023-04-17T08:11:14.716Z,99.90
2023-04-17T08:13:41.850Z,99.90
2023-04-17T08:16:09.326Z,99.90
2023-04-17T16:17:02.965Z,90.00
2023-04-17T16:19:30.958Z,89.60
2023-04-17T16:21:58.335Z,89.60
2023-04-17T16:24:25.748Z,89.70
2023-04-17T16:26:57.313Z,90.50
2023-04-17T16:29:24.922Z,90.10
2023-04-17T16:31:53.839Z,90.10
2023-04-17T16:34:21.063Z,90.20
2023-04-17T16:36:48.448Z,90.00
2023-04-17T16:39:15.585Z,90.20
2023-04-17T16:41:42.504Z,90.80
2023-04-17T16:44:09.342Z,90.60
2023-04-17T16:46:55.280Z,90.80
2023-04-17T16:49:23.047Z,90.20
2023-04-17T16:51:49.805Z,90.50
2023-04-17T16:54:16.677Z,90.40
2023-04-17T16:56:43.554Z,90.50
2023-04-17T16:59:10.453Z,90.20
2023-04-17T17:01:37.430Z,90.30
2023-04-17T17:04:04.511Z,90.30
2023-04-17T17:06:31.279Z,89.10
2023-04-17T17:08:59.591Z,90.00
2023-04-17T17:11:26.536Z,89.40
2023-04-17T17:13:53.386Z,89.50
2023-04-17T17:16:24.071Z,88.50
2023-04-17T17:18:51.055Z,89.70
2023-04-17T17:21:17.779Z,89.00
2023-04-17T17:23:44.446Z,89.30
2023-04-17T17:26:11.247Z,87.90
2023-04-17T17:28:38.004Z,87.80
2023-04-17T17:31:09.289Z,88.10
2023-04-17T17:33:36.544Z,88.10
2023-04-17T17:36:03.912Z,88.20
2023-04-17T17:38:32.712Z,88.50
2023-04-17T17:40:59.796Z,89.20
2023-04-17T17:43:29.491Z,89.00
2023-04-17T17:45:56.335Z,88.30
2023-04-17T17:48:23.110Z,89.10
2023-04-17T17:50:54.435Z,88.80
2023-04-17T17:53:26.035Z,89.40
2023-04-17T17:55:57.115Z,89.20
2023-04-17T17:58:24.617Z,90.10
2023-04-17T18:00:51.497Z,90.30
2023-04-17T18:03:19.238Z,90.60
2023-04-17T18:05:47.147Z,90.10
2023-04-17T18:08:14.602Z,90.80
2023-04-17T18:10:41.401Z,90.10
2023-04-17T18:13:08.332Z,90.30
2023-04-17T18:15:36.374Z,90.90
2023-04-17T18:18:03.498Z,91.10
2023-04-17T18:20:30.225Z,90.90
2023-04-17T18:22:57.644Z,91.40
2023-04-17T18:25:24.601Z,90.80
2023-04-17T18:27:51.430Z,91.50
2023-04-17T18:30:18.226Z,91.50
2023-04-17T18:32:45.017Z,92.00
2023-04-17T18:35:11.951Z,91.70
2023-04-17T18:37:39.617Z,91.90
2023-04-17T18:40:07.944Z,92.20
2023-04-17T18:42:34.736Z,92.50
2023-04-17T18:45:01.548Z,92.60
2023-04-17T18:47:28.616Z,92.30
2023-04-17T18:49:55.485Z,92.10
2023-04-17T18:52:22.401Z,92.40
2023-04-17T18:54:49.269Z,92.30
2023-04-17T18:57:16.098Z,91.70
2023-04-17T18:59:43.369Z,92.10
2023-04-17T19:02:10.288Z,92.90
2023-04-17T19:04:37.316Z,92.50
2023-04-17T19:07:04.051Z,93.50
2023-04-17T19:09:30.845Z,92.90
2023-04-17T19:11:58.549Z,93.20
2023-04-17T19:14:25.546Z,93.10
2023-04-17T19:16:53.281Z,93.50
2023-04-17T19:19:20.143Z,93.80
2023-04-17T19:21:46.911Z,94.50
2023-04-17T19:24:13.874Z,93.80
2023-04-17T19:26:40.800Z,93.60
2023-04-17T19:29:07.526Z,93.90
2023-04-17T19:31:34.443Z,94.10
2023-04-17T19:34:01.646Z,94.00
2023-04-17T19:36:28.534Z,94.20
2023-04-17T19:38:59.121Z,94.10
2023-04-17T19:41:26.359Z,94.20
2023-04-17T19:43:55.875Z,94.30
2023-04-17T19:46:24.190Z,94.20
2023-04-17T19:48:52.385Z,93.40
2023-04-17T19:51:19.090Z,93.90
2023-04-17T19:53:47.082Z,94.00
2023-04-17T19:56:14.332Z,93.20
2023-04-17T19:58:41.705Z,93.50
2023-04-17T20:01:09.033Z,93.00
2023-04-17T20:03:38.309Z,92.90
2023-04-17T20:06:05.360Z,93.00
2023-04-17T20:08:32.218Z,93.30
2023-04-17T20:10:59.565Z,93.70
2023-04-17T20:13:27.883Z,93.80
2023-04-17T20:15:54.787Z,93.70
2023-04-17T20:18:21.661Z,94.20
2023-04-17T20:20:48.422Z,94.00
2023-04-17T20:23:15.266Z,94.80
2023-04-17T20:25:42.272Z,94.50
2023-04-17T20:28:09.597Z,95.00
2023-04-17T20:30:36.647Z,95.00
2023-04-17T20:33:04.288Z,94.80
2023-04-17T20:35:31.279Z,95.40
2023-04-17T20:37:58.820Z,95.10
2023-04-17T20:40:25.739Z,95.90
2023-04-17T20:42:52.463Z,96.30
2023-04-17T20:45:19.382Z,96.00
2023-04-17T20:47:56.595Z,96.50
2023-04-17T20:50:25.492Z,96.70
2023-04-17T20:52:52.250Z,97.50
2023-04-17T20:55:19.904Z,97.70
2023-04-17T20:57:47.424Z,97.90
2023-04-17T21:00:14.653Z,98.80
2023-04-17T21:02:41.894Z,99.00
2023-04-17T21:05:09.352Z,99.10
2023-04-17T21:07:36.637Z,98.80
2023-04-17T21:10:03.846Z,99.20
2023-04-17T21:12:32.927Z,99.70
2023-04-17T21:14:59.861Z,99.90
2023-04-17T21:17:26.726Z,99.70
2023-04-17T21:19:55.752Z,99.70
2023-04-17T21:22:22.578Z,99.90
2023-04-17T21:24:49.448Z,99.90
2023-04-17T21:27:16.385Z,99.90
2023-04-17T21:29:43.093Z,99.90
2023-04-17T21:32:09.881Z,99.90
2023-04-17T21:34:36.703Z,99.90
2023-04-17T21:37:04.929Z,99.90
2023-04-17T21:39:33.246Z,99.90
2023-04-17T21:42:00.676Z,99.90
2023-04-17T21:44:28.151Z,99.90
2023-04-17T21:46:55.000Z,99.90
2023-04-17T21:49:22.749Z,99.90
2023-04-17T21:51:49.524Z,99.90
2023-04-17T21:54:16.824Z,99.90
2023-04-17T21:56:43.595Z,99.90
2023-04-17T21:59:10.485Z,99.90
2023-04-17T22:01:37.396Z,99.90
2023-04-17T22:04:04.438Z,99.90
2023-04-17T22:06:34.252Z,99.90
2023-04-17T22:09:01.470Z,99.90
2023-04-17T22:11:28.292Z,99.90
2023-04-17T22:13:55.238Z,99.90
2023-04-17T22:16:22.080Z,99.90
2023-04-17T22:18:48.885Z,99.90
2023-04-17T22:21:15.648Z,99.90
2023-04-17T22:23:42.617Z,99.90
2023-04-17T22:26:09.446Z,99.90
2023-04-17T22:28:36.367Z,99.90
2023-04-17T22:31:03.142Z,99.90
2023-04-17T22:33:29.858Z,99.90
2023-04-17T22:35:57.007Z,99.90
2023-04-17T22:38:23.811Z,99.90
2023-04-17T22:40:50.546Z,99.90
2023-04-17T22:43:17.274Z,99.90
2023-04-17T22:45:44.015Z,99.90
2023-04-17T22:48:11.229Z,99.90
2023-04-17T22:50:38.203Z,99.90
2023-04-17T22:53:05.628Z,99.90
2023-04-17T22:55:32.793Z,99.90
2023-04-17T22:58:01.774Z,99.90
2023-04-17T23:00:29.560Z,99.90
2023-04-17T23:02:56.645Z,99.90
2023-04-17T23:05:23.524Z,99.90
2023-04-17T23:07:50.588Z,99.90
2023-04-17T23:10:17.589Z,99.90
2023-04-17T23:12:44.265Z,99.90
2023-04-17T23:15:11.252Z,99.90
2023-04-17T23:17:38.049Z,99.90
2023-04-17T23:20:05.185Z,99.90
2023-04-17T23:22:31.929Z,99.90
2023-04-17T23:24:59.087Z,99.90
2023-04-17T23:27:25.972Z,99.90
2023-04-17T23:29:52.863Z,99.90
2023-04-17T23:32:19.684Z,99.90
2023-04-17T23:34:46.367Z,99.90
2023-04-17T23:37:13.104Z,99.90
2023-04-17T23:39:40.569Z,99.90
2023-04-17T23:42:08.051Z,99.90
2023-04-17T23:44:35.641Z,99.90
2023-04-17T23:47:03.817Z,99.90
2023-04-17T23:49:30.706Z,99.90
2023-04-17T23:51:57.349Z,99.90
2023-04-17T23:54:24.246Z,99.90
2023-04-17T23:56:51.104Z,99.90
2023-04-17T23:59:17.892Z,99.90
